createdAt,value
2023-01-03T00:00:59.917Z,17.10
2023-01-03T00:03:32.440Z,18.80
2023-01-03T00:06:06.585Z,17.20
2023-01-03T00:08:39.878Z,19.00
2023-01-03T00:11:17.151Z,17.80
2023-01-03T00:13:50.163Z,19.50
2023-01-03T00:16:23.474Z,19.60
2023-01-03T00:18:55.999Z,19.90
2023-01-03T00:21:28.531Z,20.30
2023-01-03T00:24:02.000Z,18.60
2023-01-03T00:26:34.933Z,18.10
2023-01-03T00:29:08.431Z,21.80
2023-01-03T00:34:13.203Z,20.70
2023-01-03T00:36:46.601Z,21.00
2023-01-03T00:39:19.372Z,21.00
2023-01-03T00:41:52.773Z,21.30
2023-01-03T00:44:27.873Z,21.40
2023-01-03T00:47:01.775Z,20.00
2023-01-03T00:49:34.350Z,20.70
2023-01-03T00:52:07.123Z,20.50
2023-01-03T00:54:40.010Z,20.00
2023-01-03T00:57:13.104Z,19.90
2023-01-03T00:59:45.852Z,19.30
2023-01-03T01:02:20.785Z,18.80
2023-01-03T01:04:55.393Z,19.70
2023-01-03T01:07:28.305Z,18.60
2023-01-03T01:10:01.489Z,17.50
2023-01-03T01:12:34.461Z,17.80
2023-01-03T01:15:09.405Z,17.90
2023-01-03T01:17:42.657Z,17.40
2023-01-03T01:20:17.997Z,18.40
2023-01-03T01:22:51.784Z,17.30
2023-01-03T01:25:24.493Z,16.00
2023-01-03T01:27:58.698Z,12.30
2023-01-03T01:30:33.544Z,16.70
2023-01-03T01:33:06.055Z,16.90
2023-01-03T01:35:38.610Z,17.10
2023-01-03T01:38:13.361Z,17.20
2023-01-03T01:40:46.464Z,18.10
2023-01-03T01:46:21.521Z,17.60
2023-01-03T01:48:59.782Z,18.90
2023-01-03T01:51:39.230Z,19.40
2023-01-03T01:54:12.683Z,19.70
2023-01-03T01:56:48.990Z,20.00
2023-01-03T01:59:21.845Z,18.40
2023-01-03T05:43:35.118Z,18.00
2023-01-03T05:48:59.886Z,18.70
2023-01-03T05:51:32.546Z,20.20
2023-01-03T05:54:08.857Z,20.60
2023-01-03T06:00:14.161Z,18.50
2023-01-03T06:03:09.044Z,17.80
2023-01-03T06:08:29.595Z,15.80
2023-01-03T06:11:06.715Z,16.20
2023-01-03T06:13:44.138Z,17.60
2023-01-03T06:16:52.837Z,15.00
2023-01-03T06:19:35.160Z,14.80
2023-01-03T06:24:59.824Z,14.20
2023-01-03T06:27:33.683Z,14.70
2023-01-03T06:30:07.677Z,14.20
2023-01-03T06:36:09.457Z,13.60
2023-01-03T06:39:02.117Z,14.40
2023-01-03T06:44:31.581Z,16.40
2023-01-03T06:47:23.315Z,16.70
2023-01-03T06:50:21.816Z,16.40
2023-01-03T06:53:12.486Z,15.60
2023-01-03T06:55:56.144Z,16.10
2023-01-03T06:58:37.980Z,13.90
2023-01-03T07:04:00.701Z,12.80
2023-01-03T07:06:33.345Z,14.00
2023-01-03T07:09:09.605Z,14.70
2023-01-03T07:14:31.554Z,15.50
2023-01-03T07:17:05.136Z,15.70
2023-01-03T07:19:38.235Z,16.10
2023-01-03T07:25:02.877Z,17.90
2023-01-03T07:27:35.761Z,17.30
2023-01-03T07:30:13.826Z,17.80
2023-01-03T07:33:10.452Z,17.10
2023-01-03T07:38:30.367Z,17.20
2023-01-03T07:41:04.986Z,15.30
2023-01-03T07:43:41.567Z,15.80
2023-01-03T07:46:36.136Z,13.00
2023-01-03T07:52:05.324Z,11.90
2023-01-03T07:54:51.207Z,11.70
2023-01-03T07:57:23.965Z,9.60
2023-01-03T08:00:04.403Z,8.60
2023-01-03T08:03:10.621Z,8.10
2023-01-03T08:06:03.219Z,7.30
2023-01-03T08:12:38.971Z,6.90
2023-01-03T08:15:10.335Z,6.60
2023-01-03T08:20:28.705Z,6.80
2023-01-03T08:23:00.692Z,6.50
2023-01-03T08:25:33.922Z,6.60
2023-01-03T08:31:02.986Z,6.90
2023-01-03T08:33:39.133Z,6.60
2023-01-03T08:36:10.475Z,6.00
2023-01-03T08:42:08.050Z,5.50
2023-01-03T08:47:32.458Z,5.80
2023-01-03T08:50:02.968Z,5.30
2023-01-03T08:52:35.519Z,6.70
2023-01-03T08:57:59.685Z,6.80
2023-01-03T09:00:30.215Z,7.30
2023-01-03T09:03:05.085Z,7.30
2023-01-03T09:05:35.386Z,7.50
2023-01-03T09:08:05.662Z,8.60
2023-01-03T09:10:39.670Z,9.10
2023-01-03T09:13:32.748Z,9.50
2023-01-03T09:16:03.577Z,9.60
2023-01-03T09:18:34.586Z,9.70
2023-01-03T09:21:07.665Z,10.60
2023-01-03T09:26:29.708Z,11.30
2023-01-03T09:29:00.353Z,10.90
2023-01-03T09:31:40.334Z,9.60
2023-01-03T09:34:32.052Z,9.40
2023-01-03T09:37:04.063Z,9.00
2023-01-03T09:39:34.656Z,8.10
2023-01-03T09:42:25.724Z,8.30
2023-01-03T09:45:05.747Z,6.80
2023-01-03T09:50:50.724Z,7.50
2023-01-03T10:09:26.046Z,6.70
2023-01-03T10:12:17.716Z,5.60
2023-01-03T10:15:15.587Z,5.20
2023-01-03T10:18:11.664Z,6.30
2023-01-03T10:21:12.415Z,4.50
2023-01-03T10:24:18.430Z,5.30
2023-01-03T10:27:14.467Z,3.90
2023-01-03T10:30:07.411Z,4.10
2023-01-03T10:35:31.113Z,4.50
2023-01-03T10:38:01.465Z,4.70
2023-01-03T10:40:37.700Z,4.80
2023-01-03T10:46:01.831Z,4.00
2023-01-03T10:49:17.124Z,4.10
2023-01-03T10:51:40.261Z,3.80
2023-01-03T10:54:22.115Z,3.20
2023-01-03T10:57:29.001Z,3.70
2023-01-03T11:00:21.032Z,2.80
2023-01-03T11:03:16.819Z,3.00
2023-01-03T11:06:14.605Z,3.90
2023-01-03T11:09:11.154Z,3.60
2023-01-03T11:12:13.061Z,4.30
2023-01-03T11:15:17.273Z,2.90
2023-01-03T11:18:05.475Z,2.50
2023-01-03T11:24:16.753Z,2.70
2023-01-03T11:27:12.662Z,2.60
2023-01-03T11:30:17.728Z,3.60
2023-01-03T11:33:29.543Z,4.30
2023-01-03T11:36:22.244Z,3.50
2023-01-03T11:39:27.218Z,7.90
2023-01-03T11:42:23.384Z,5.10
2023-01-03T11:45:40.692Z,3.70
2023-01-03T11:48:33.226Z,5.70
2023-01-03T11:51:14.782Z,4.90
2023-01-03T11:54:10.044Z,6.40
2023-01-03T13:36:16.416Z,3.40
2023-01-03T13:38:46.406Z,5.00
2023-01-03T13:41:33.018Z,4.00
2023-01-03T13:44:16.497Z,3.90
2023-01-03T13:46:47.302Z,8.00
2023-01-03T13:49:20.894Z,3.70
2023-01-03T13:51:53.686Z,3.90
2023-01-03T13:54:42.106Z,4.00
2023-01-03T13:57:30.649Z,4.20
2023-01-03T14:00:03.526Z,3.60
2023-01-03T14:03:13.491Z,3.20
2023-01-03T14:06:19.066Z,3.60
2023-01-03T14:09:19.186Z,3.40
2023-01-03T14:12:07.099Z,4.20
2023-01-03T14:14:40.266Z,4.00
2023-01-03T14:17:18.746Z,4.00
2023-01-03T14:19:52.476Z,4.90
2023-01-03T14:22:31.477Z,5.40
2023-01-03T14:25:02.189Z,6.40
2023-01-03T14:27:39.166Z,9.40
2023-01-03T14:30:24.287Z,11.30
2023-01-03T14:32:54.963Z,8.10
2023-01-03T14:35:36.061Z,7.40
2023-01-03T14:38:07.450Z,7.60
2023-01-03T14:40:40.626Z,6.20
2023-01-03T14:43:21.014Z,6.10
2023-01-03T14:45:55.712Z,6.30
2023-01-03T14:48:25.978Z,6.50
2023-01-03T14:50:56.672Z,7.50
2023-01-03T14:53:27.394Z,15.10
2023-01-03T14:55:58.623Z,14.60
2023-01-03T14:58:40.571Z,9.30
2023-01-03T15:01:14.376Z,7.20
2023-01-03T15:03:46.753Z,7.00
2023-01-03T15:06:23.869Z,6.80
2023-01-03T15:08:56.120Z,6.60
2023-01-03T15:11:33.494Z,5.50
2023-01-03T15:14:06.112Z,5.20
2023-01-03T15:16:38.346Z,5.70
2023-01-03T15:19:15.512Z,5.10
2023-01-03T15:21:54.895Z,5.10
2023-01-03T15:24:25.432Z,4.80
2023-01-03T15:26:56.102Z,4.20
2023-01-03T15:29:28.714Z,4.80
2023-01-03T15:32:00.920Z,4.20
2023-01-03T15:34:41.840Z,5.00
2023-01-03T15:37:17.381Z,8.00
2023-01-03T15:39:49.884Z,6.80
2023-01-03T15:42:46.858Z,14.90
2023-01-03T15:45:25.696Z,21.30
2023-01-03T15:48:07.074Z,13.20
2023-01-03T15:50:53.527Z,18.90
2023-01-03T15:53:28.715Z,21.00
2023-01-03T15:56:03.005Z,14.90
2023-01-03T15:58:39.659Z,17.40
2023-01-03T16:01:10.668Z,28.20
2023-01-03T16:03:44.212Z,20.50
2023-01-03T16:06:14.277Z,44.80
2023-01-03T16:08:44.712Z,42.10
2023-01-03T16:11:20.846Z,32.60
2023-01-03T16:13:55.633Z,18.00
2023-01-03T16:16:28.815Z,40.00
2023-01-03T16:18:59.458Z,30.00
2023-01-03T16:21:30.613Z,56.60
2023-01-03T16:24:02.533Z,44.40
2023-01-03T16:26:36.557Z,37.90
2023-01-03T16:29:06.653Z,30.70
2023-01-03T16:31:37.463Z,45.80
2023-01-03T16:34:15.251Z,26.70
2023-01-03T16:36:47.360Z,20.30
2023-01-03T16:39:19.811Z,29.60
2023-01-03T16:42:05.949Z,23.00
2023-01-03T16:44:38.454Z,33.10
2023-01-03T16:47:14.648Z,28.80
2023-01-03T16:49:49.756Z,23.90
2023-01-03T16:52:25.096Z,27.20
2023-01-03T16:54:56.807Z,29.00
2023-01-03T16:57:28.145Z,24.80
2023-01-03T16:59:58.676Z,42.60
2023-01-03T17:02:29.438Z,36.70
2023-01-03T17:04:59.651Z,42.90
2023-01-03T17:07:29.886Z,21.90
2023-01-03T17:10:00.197Z,21.20
2023-01-03T17:12:30.276Z,31.10
2023-01-03T17:15:00.376Z,38.90
2023-01-03T17:17:30.662Z,42.10
2023-01-03T17:20:04.269Z,25.60
2023-01-03T17:22:35.938Z,22.00
2023-01-03T17:25:06.903Z,18.60
2023-01-03T17:27:37.168Z,31.80
2023-01-03T17:30:09.315Z,23.80
2023-01-03T17:32:39.840Z,15.50
2023-01-03T17:35:14.113Z,16.20
2023-01-03T17:38:23.300Z,16.50
2023-01-03T17:40:37.366Z,14.00
2023-01-03T17:43:07.688Z,13.90
2023-01-03T17:45:55.128Z,16.30
2023-01-03T17:48:42.906Z,18.80
2023-01-03T17:51:13.250Z,27.60
2023-01-03T17:53:44.253Z,43.70
2023-01-03T17:56:17.104Z,21.20
2023-01-03T17:58:55.846Z,21.30
2023-01-03T18:01:26.370Z,31.30
2023-01-03T18:03:56.802Z,51.50
2023-01-03T18:06:27.485Z,49.40
2023-01-03T18:08:57.583Z,53.80
2023-01-03T18:11:28.498Z,56.20
2023-01-03T18:13:58.742Z,57.00
2023-01-03T18:16:29.182Z,50.60
2023-01-03T18:18:59.474Z,47.10
2023-01-03T18:21:29.530Z,36.40
2023-01-03T18:24:02.047Z,28.90
2023-01-03T18:26:36.527Z,35.50
2023-01-03T18:29:07.948Z,43.80
2023-01-03T18:31:38.029Z,42.10
2023-01-03T18:34:09.309Z,32.70
2023-01-03T18:36:42.154Z,27.70
2023-01-03T18:39:16.325Z,26.10
2023-01-03T18:41:46.340Z,36.30
2023-01-03T18:44:22.826Z,34.80
2023-01-03T18:46:53.149Z,21.60
2023-01-03T18:49:23.305Z,29.20
2023-01-03T18:51:54.915Z,37.20
2023-01-03T18:54:25.395Z,29.20
2023-01-03T18:56:55.273Z,23.50
2023-01-03T18:59:27.707Z,22.80
2023-01-03T19:01:57.917Z,20.90
2023-01-03T19:04:28.127Z,24.50
2023-01-03T19:06:58.341Z,27.40
2023-01-03T19:09:29.060Z,21.90
2023-01-03T19:11:59.356Z,26.00
2023-01-03T19:14:29.306Z,30.50
2023-01-03T19:16:59.384Z,38.00
2023-01-03T19:19:32.743Z,32.40
2023-01-03T19:22:07.656Z,19.60
2023-01-03T19:24:40.991Z,23.20
2023-01-03T19:27:16.165Z,26.40
2023-01-03T19:29:56.855Z,26.40
2023-01-03T19:32:32.821Z,27.00
2023-01-03T19:35:14.589Z,23.30
2023-01-03T19:37:46.164Z,29.70
2023-01-03T19:40:18.785Z,23.10
2023-01-03T19:42:57.649Z,18.50
2023-01-03T19:45:38.384Z,23.40
2023-01-03T19:48:20.615Z,24.90
2023-01-03T19:50:59.672Z,26.70
2023-01-03T19:53:31.992Z,26.60
2023-01-03T19:56:05.656Z,24.90
2023-01-03T19:58:40.935Z,24.20
2023-01-03T20:01:15.069Z,29.70
2023-01-03T20:03:47.700Z,28.10
2023-01-03T20:06:20.438Z,28.20
2023-01-03T20:08:51.645Z,23.00
2023-01-03T20:11:24.452Z,21.60
2023-01-03T20:13:55.224Z,23.90
2023-01-03T20:16:28.299Z,34.20
2023-01-03T20:18:58.657Z,34.10
2023-01-03T20:21:33.260Z,27.60
2023-01-03T20:24:07.447Z,21.00
2023-01-03T20:26:39.349Z,20.70
2023-01-03T20:29:11.882Z,20.30
2023-01-03T20:31:42.510Z,20.20
2023-01-03T20:34:13.884Z,25.10
2023-01-03T20:36:48.935Z,24.50
2023-01-03T20:39:28.835Z,19.70
2023-01-03T20:42:03.560Z,20.40
2023-01-03T20:44:34.174Z,22.20
2023-01-03T20:47:06.174Z,23.30
2023-01-03T20:49:40.176Z,25.60
2023-01-03T20:52:17.496Z,24.90
2023-01-03T20:54:47.991Z,25.30
2023-01-03T20:57:20.995Z,27.20
2023-01-03T20:59:51.930Z,26.50
2023-01-03T21:02:22.432Z,26.00
2023-01-03T21:04:52.605Z,26.60
2023-01-03T21:07:49.809Z,29.50
2023-01-03T21:10:24.363Z,28.30
2023-01-03T21:12:54.355Z,27.40
2023-01-03T21:15:27.284Z,28.30
2023-01-03T21:17:57.596Z,27.50
2023-01-03T21:20:29.258Z,29.80
2023-01-03T21:22:59.970Z,28.50
2023-01-03T21:25:32.661Z,29.00
2023-01-03T21:28:03.785Z,31.30
2023-01-03T21:30:34.076Z,35.10
2023-01-03T21:33:04.760Z,38.30
2023-01-03T21:35:41.011Z,30.90
2023-01-03T21:38:12.572Z,29.80
2023-01-03T21:40:42.912Z,32.50
2023-01-03T21:43:13.307Z,32.90
2023-01-03T21:45:46.808Z,38.40
2023-01-03T21:48:18.938Z,31.60
2023-01-03T21:50:52.756Z,25.60
2023-01-03T21:53:23.703Z,26.00
2023-01-03T21:55:53.795Z,20.60
2023-01-03T21:58:24.476Z,22.10
2023-01-03T22:00:54.573Z,27.20
2023-01-03T22:03:42.313Z,23.80
2023-01-03T22:06:14.306Z,20.30
2023-01-03T22:08:44.209Z,27.10
2023-01-03T22:11:14.521Z,30.40
2023-01-03T22:13:44.867Z,31.20
2023-01-03T22:16:15.035Z,29.90
2023-01-03T22:18:45.514Z,25.00
2023-01-03T22:21:15.786Z,22.40
2023-01-03T22:23:45.890Z,24.00
2023-01-03T22:26:16.642Z,24.20
2023-01-03T22:28:47.544Z,23.40
2023-01-03T22:31:19.422Z,23.30
2023-01-03T22:33:50.412Z,23.60
2023-01-03T22:36:20.347Z,22.40
2023-01-03T22:38:52.578Z,24.60
2023-01-03T22:41:22.719Z,23.60
2023-01-03T22:43:54.132Z,23.60
2023-01-03T22:46:24.068Z,26.80
2023-01-03T22:48:55.417Z,27.30
2023-01-03T22:51:25.503Z,25.00
2023-01-03T22:53:56.787Z,25.40
2023-01-03T22:58:57.906Z,23.50
2023-01-03T23:01:29.032Z,23.90
2023-01-03T23:04:04.007Z,25.80
2023-01-03T23:06:35.440Z,24.10
2023-01-03T23:09:09.016Z,25.40
2023-01-03T23:11:56.755Z,27.10
2023-01-03T23:14:27.884Z,24.30
2023-01-03T23:16:57.933Z,27.20
2023-01-03T23:19:28.546Z,28.60
2023-01-03T23:21:58.470Z,26.60
2023-01-03T23:24:28.554Z,24.30
2023-01-03T23:26:58.516Z,24.30
2023-01-03T23:29:28.686Z,25.60
2023-01-03T23:31:58.524Z,27.80
2023-01-03T23:34:28.507Z,27.20
2023-01-03T23:36:58.580Z,30.00
2023-01-03T23:39:29.263Z,27.00
2023-01-03T23:41:59.551Z,26.60
2023-01-03T23:44:30.164Z,30.30
2023-01-03T23:47:00.110Z,34.60
2023-01-03T23:49:30.137Z,35.50
2023-01-03T23:52:00.176Z,37.70
2023-01-03T23:54:30.244Z,33.40
2023-01-03T23:57:03.094Z,29.00
2023-01-03T23:59:33.018Z,29.90
